Time;durP1;ratioP1;P1;durP2;ratioP2;P2;SDS_P1;SDS_P2;PMS_P1;PMS_P2;Temp;Humidity;BMP_temperature;BMP_pressure;BME280_temperature;BME280_humidity;BME280_pressure;Samples;Min_cycle;Max_cycle;Signal;HPM_P1;HPM_P2
2021/05/17 00:00:09;;;;;;;6.35;4.80;;;;;;;12.47;87.08;93667.56;1727752;83;20983;-53
2021/05/17 00:02:37;;;;;;;5.33;3.92;;;;;;;12.52;86.80;93657.23;1727606;83;20992;-53
2021/05/17 00:05:06;;;;;;;6.53;4.22;;;;;;;12.55;86.93;93654.88;1703129;83;21002;-54
2021/05/17 00:07:35;;;;;;;3.52;3.22;;;;;;;12.63;86.89;93653.95;1727466;81;21090;-54
2021/05/17 00:10:06;;;;;;;4.03;3.60;;;;;;;12.67;86.41;93643.45;1727425;83;21054;-53
2021/05/17 00:12:33;;;;;;;4.58;3.62;;;;;;;12.68;86.20;93642.21;1727634;82;20943;-54
2021/05/17 00:15:00;;;;;;;4.30;3.87;;;;;;;12.69;85.89;93640.22;1727579;83;21627;-53
2021/05/17 00:17:28;;;;;;;6.22;4.28;;;;;;;12.66;85.87;93643.33;1727578;81;21606;-54
2021/05/17 00:19:55;;;;;;;4.28;3.60;;;;;;;12.62;85.95;93641.41;1703015;83;21088;-53
2021/05/17 00:22:23;;;;;;;4.55;4.12;;;;;;;12.57;86.03;93643.47;1727565;83;21106;-54
2021/05/17 00:24:53;;;;;;;5.17;4.22;;;;;;;12.59;86.25;93647.13;1727537;81;21072;-54
2021/05/17 00:27:21;;;;;;;6.72;3.83;;;;;;;12.61;86.10;93645.41;1724379;83;21110;-53
2021/05/17 00:29:51;;;;;;;3.75;3.45;;;;;;;12.62;85.88;93653.05;1711330;82;21496;-53
2021/05/17 00:32:17;;;;;;;2.98;2.77;;;;;;;12.60;85.76;93655.55;1711309;83;21082;-53
2021/05/17 00:34:44;;;;;;;3.45;2.95;;;;;;;12.61;85.67;93659.81;1648564;86;21002;-54
2021/05/17 00:37:14;;;;;;;3.72;3.17;;;;;;;12.57;85.44;93652.38;1667639;85;21026;-54
2021/05/17 00:39:41;;;;;;;3.47;3.17;;;;;;;12.52;85.43;93654.47;1667686;85;21085;-53
2021/05/17 00:42:11;;;;;;;5.90;3.45;;;;;;;12.47;85.79;93659.28;1711353;83;21066;-55
2021/05/17 00:44:40;;;;;;;3.45;3.17;;;;;;;12.48;85.80;93664.94;1711397;82;21086;-53
2021/05/17 00:47:13;;;;;;;4.40;2.30;;;;;;;12.48;85.71;93669.70;1711356;82;21027;-53
2021/05/17 00:49:41;;;;;;;3.27;2.80;;;;;;;12.47;85.77;93670.31;1711296;82;20908;-54
2021/05/17 00:52:10;;;;;;;3.85;3.08;;;;;;;12.52;85.74;93675.16;1667622;85;21009;-54
2021/05/17 00:54:37;;;;;;;3.45;3.12;;;;;;;12.53;85.59;93673.27;1667722;84;21006;-54
2021/05/17 00:57:06;;;;;;;2.05;1.95;;;;;;;12.54;85.71;93670.66;1711356;83;21079;-54
2021/05/17 00:59:34;;;;;;;2.85;2.60;;;;;;;12.58;85.36;93676.73;1711248;83;21007;-53
2021/05/17 01:02:03;;;;;;;2.77;2.58;;;;;;;12.58;84.93;93667.69;1711537;83;21563;-53
2021/05/17 01:04:32;;;;;;;3.67;2.30;;;;;;;12.55;84.84;93665.27;1707902;83;21102;-53
2021/05/17 01:06:59;;;;;;;13.20;11.28;;;;;;;12.56;85.08;93664.66;1711414;82;21019;-53
2021/05/17 01:09:27;;;;;;;10.43;6.55;;;;;;;12.60;84.93;93668.73;1711356;83;21041;-53
2021/05/17 01:11:57;;;;;;;4.80;4.12;;;;;;;12.62;84.42;93659.95;1667794;85;20986;-54
2021/05/17 01:14:25;;;;;;;3.40;3.10;;;;;;;12.56;84.15;93658.51;1667582;84;21529;-54
2021/05/17 01:16:54;;;;;;;4.47;3.45;;;;;;;12.47;84.19;93657.91;1711310;83;20916;-53
2021/05/17 01:19:35;;;;;;;4.50;2.98;;;;;;;12.36;84.50;93656.42;1711392;82;20979;-53
2021/05/17 01:22:21;;;;;;;3.98;3.12;;;;;;;12.24;84.90;93657.52;1711391;83;21127;-53
2021/05/17 01:24:40;;;;;;;3.50;3.20;;;;;;;12.17;85.31;93665.45;1666403;84;21085;-52
2021/05/17 01:27:09;;;;;;;4.28;3.58;;;;;;;12.15;85.83;93670.09;1667997;86;21002;-52
2021/05/17 01:29:38;;;;;;;4.60;4.20;;;;;;;12.18;86.18;93667.73;1711291;82;21102;-53
2021/05/17 01:32:08;;;;;;;5.25;3.20;;;;;;;12.18;86.18;93660.84;1711296;83;20995;-53
2021/05/17 01:34:38;;;;;;;7.50;2.95;;;;;;;12.12;86.31;93672.41;1711374;83;21039;-53
2021/05/17 01:37:08;;;;;;;3.45;2.90;;;;;;;12.09;86.66;93667.86;1711194;83;20937;-53
2021/05/17 01:39:39;;;;;;;3.27;2.90;;;;;;;12.08;86.73;93654.58;1667685;86;21143;-54
2021/05/17 01:42:07;;;;;;;5.15;3.37;;;;;;;12.07;86.90;93649.67;1667660;86;21050;-54
2021/05/17 01:44:33;;;;;;;3.72;3.42;;;;;;;12.07;86.96;93655.18;1667766;86;21509;-54
2021/05/17 01:47:01;;;;;;;5.05;3.33;;;;;;;12.08;87.11;93658.71;1667574;84;21092;-53
2021/05/17 01:49:29;;;;;;;3.72;3.30;;;;;;;12.11;86.91;93661.23;1667467;86;21049;-54
2021/05/17 01:51:56;;;;;;;5.00;3.42;;;;;;;12.14;86.88;93656.77;1667721;86;20992;-53
2021/05/17 01:54:23;;;;;;;4.10;3.70;;;;;;;12.20;87.18;93652.84;1711459;83;21027;-54
2021/05/17 01:56:53;;;;;;;5.47;4.00;;;;;;;12.26;86.85;93648.14;1640543;83;21467;-54
2021/05/17 01:59:30;;;;;;;3.65;3.30;;;;;;;12.25;86.28;93648.01;1641124;83;21759;-53
2021/05/17 02:01:58;;;;;;;4.78;3.47;;;;;;;12.21;86.06;93643.94;1711337;83;20955;-54
2021/05/17 02:04:26;;;;;;;3.92;2.75;;;;;;;12.20;86.01;93651.47;1683484;83;20987;-54
2021/05/17 02:06:54;;;;;;;3.85;3.25;;;;;;;12.18;85.86;93644.91;1711306;83;21003;-53
2021/05/17 02:09:21;;;;;;;5.15;4.20;;;;;;;12.14;86.01;93642.98;1667523;85;21034;-54
2021/05/17 02:11:49;;;;;;;5.72;3.87;;;;;;;12.11;85.84;93646.08;1711407;83;21079;-54
2021/05/17 02:14:17;;;;;;;3.10;2.77;;;;;;;12.07;85.78;93648.29;1708995;83;21537;-54
2021/05/17 02:16:45;;;;;;;5.17;2.75;;;;;;;12.04;85.85;93649.89;1711292;83;21007;-54
2021/05/17 02:19:13;;;;;;;9.23;2.80;;;;;;;12.05;86.10;93656.92;1711341;83;21610;-54
2021/05/17 02:21:41;;;;;;;2.75;2.55;;;;;;;12.06;86.00;93656.42;1667675;86;21019;-54
2021/05/17 02:24:10;;;;;;;3.87;2.98;;;;;;;12.03;85.72;93657.39;1648499;86;22249;-53
2021/05/17 02:26:38;;;;;;;3.62;3.05;;;;;;;11.98;85.73;93649.05;1667578;84;21054;-53
2021/05/17 02:29:05;;;;;;;10.63;6.47;;;;;;;11.97;86.17;93652.44;1667538;84;21534;-53
2021/05/17 02:31:34;;;;;;;14.80;8.93;;;;;;;11.99;86.24;93655.47;1667612;86;21604;-52
2021/05/17 02:34:03;;;;;;;3.50;3.20;;;;;;;11.99;86.21;93646.42;1667686;86;21049;-53
2021/05/17 02:36:30;;;;;;;30.77;15.30;;;;;;;11.93;86.09;93644.98;1667554;84;21070;-51
2021/05/17 02:38:58;;;;;;;9.68;6.37;;;;;;;11.86;86.18;93646.77;1667578;86;21018;-52
2021/05/17 02:41:26;;;;;;;5.40;3.50;;;;;;;11.84;86.39;93633.33;1648502;86;20906;-51
2021/05/17 02:43:55;;;;;;;2.87;2.67;;;;;;;11.82;86.39;93633.05;1683191;83;21015;-51
2021/05/17 02:46:23;;;;;;;3.62;3.33;;;;;;;11.79;86.41;93629.28;1667575;86;21098;-51
2021/05/17 02:48:52;;;;;;;4.15;2.90;;;;;;;11.79;86.40;93630.66;1667527;86;21085;-52
2021/05/17 02:51:19;;;;;;;3.60;3.30;;;;;;;11.78;86.45;93631.91;1667648;86;20998;-51
2021/05/17 02:53:51;;;;;;;3.40;3.10;;;;;;;11.80;86.69;93632.17;1667639;85;21501;-52
2021/05/17 02:56:36;;;;;;;3.70;3.42;;;;;;;11.82;86.81;93631.67;1710849;83;21086;-52
2021/05/17 02:59:05;;;;;;;3.67;3.35;;;;;;;11.83;87.12;93639.48;1711355;83;20975;-52
2021/05/17 03:01:42;;;;;;;5.35;2.75;;;;;;;11.86;87.23;93635.75;1711213;83;21110;-53
2021/05/17 03:04:15;;;;;;;2.60;2.50;;;;;;;11.88;87.10;93638.04;1648726;86;21074;-51
2021/05/17 03:07:07;;;;;;;3.33;2.80;;;;;;;11.92;87.17;93626.92;1667590;85;21513;-54
2021/05/17 03:09:36;;;;;;;6.78;2.87;;;;;;;11.96;87.22;93628.11;1667606;85;21556;-54
2021/05/17 03:12:06;;;;;;;3.45;3.17;;;;;;;12.04;86.98;93630.59;1667535;84;21015;-55
2021/05/17 03:14:33;;;;;;;5.20;2.90;;;;;;;12.04;86.54;93631.34;1648424;86;21606;-55
2021/05/17 03:17:01;;;;;;;6.33;3.20;;;;;;;12.00;86.18;93624.52;1647816;85;21105;-54
2021/05/17 03:19:29;;;;;;;3.60;3.10;;;;;;;11.89;85.95;93625.14;1711277;83;21617;-55
2021/05/17 03:21:57;;;;;;;5.03;3.52;;;;;;;11.83;86.27;93624.31;1711191;82;21003;-54
2021/05/17 03:24:24;;;;;;;3.65;3.35;;;;;;;11.80;86.31;93622.53;1711359;82;20975;-54
2021/05/17 03:26:54;;;;;;;4.60;3.85;;;;;;;11.73;86.28;93628.44;1711302;83;21555;-56
2021/05/17 03:29:21;;;;;;;5.50;4.60;;;;;;;11.70;86.49;93625.27;1711194;82;20980;-56
2021/05/17 03:31:47;;;;;;;6.30;4.80;;;;;;;11.73;86.57;93623.56;1711310;83;20919;-58
2021/05/17 03:34:14;;;;;;;5.45;4.42;;;;;;;11.75;86.76;93631.46;1667694;85;21566;-57
2021/05/17 03:36:42;;;;;;;4.70;3.42;;;;;;;11.79;86.86;93629.28;1711423;83;21040;-54
2021/05/17 03:39:09;;;;;;;4.90;4.00;;;;;;;11.81;86.45;93626.03;1667665;86;21838;-52
2021/05/17 03:41:36;;;;;;;4.62;4.12;;;;;;;11.82;86.29;93619.28;1711321;83;20979;-53
2021/05/17 03:44:03;;;;;;;4.90;4.40;;;;;;;11.84;86.39;93613.44;1711326;83;21047;-53
2021/05/17 03:46:30;;;;;;;5.35;4.10;;;;;;;11.84;86.19;93607.16;1667615;86;21077;-54
2021/05/17 03:48:56;;;;;;;5.83;4.95;;;;;;;11.83;86.27;93612.52;1711232;82;21055;-55
2021/05/17 03:51:23;;;;;;;5.17;4.35;;;;;;;11.84;86.28;93609.91;1711383;83;21044;-53
2021/05/17 03:53:49;;;;;;;5.60;4.30;;;;;;;11.80;85.90;93615.64;1667473;86;21038;-54
2021/05/17 03:56:16;;;;;;;6.50;5.30;;;;;;;11.79;85.96;93619.64;1667666;86;21018;-54
2021/05/17 03:58:43;;;;;;;6.83;5.53;;;;;;;11.79;85.93;93615.51;1711245;83;21027;-54
2021/05/17 04:01:10;;;;;;;7.17;5.92;;;;;;;11.76;85.75;93614.33;1667681;86;21100;-54
2021/05/17 04:03:36;;;;;;;6.35;5.50;;;;;;;11.71;85.71;93613.01;1667565;86;21814;-54
2021/05/17 04:06:25;;;;;;;11.70;6.58;;;;;;;11.68;85.83;93618.74;1667498;86;21513;-54
2021/05/17 04:14:18;;;;;;;7.25;6.53;;;;;;;11.73;86.02;93616.67;1711422;83;22031;-55
2021/05/17 04:16:45;;;;;;;8.38;6.08;;;;;;;11.73;86.00;93623.56;1711307;83;21102;-53
2021/05/17 04:19:12;;;;;;;13.53;7.65;;;;;;;11.72;85.99;93620.66;1711209;83;21091;-54
2021/05/17 04:21:40;;;;;;;16.23;8.98;;;;;;;11.69;85.92;93615.48;1667661;85;21074;-54
2021/05/17 04:24:10;;;;;;;8.70;6.00;;;;;;;11.66;85.93;93614.31;1711212;82;21582;-54
2021/05/17 04:26:37;;;;;;;8.25;6.10;;;;;;;11.62;86.12;93613.76;1667775;85;21013;-54
2021/05/17 04:29:04;;;;;;;10.40;5.40;;;;;;;11.62;86.27;93618.66;1668617;84;21091;-54
2021/05/17 04:31:31;;;;;;;6.58;4.20;;;;;;;11.63;85.94;93616.05;1694489;84;21021;-54
2021/05/17 04:33:58;;;;;;;4.62;4.12;;;;;;;11.63;85.71;93621.55;1694721;84;21002;-53
2021/05/17 04:36:27;;;;;;;7.33;5.28;;;;;;;11.63;85.72;93613.29;1694745;84;21038;-54
2021/05/17 04:38:53;;;;;;;11.22;6.78;;;;;;;11.67;85.74;93617.97;1694704;84;21030;-54
2021/05/17 04:41:20;;;;;;;20.25;13.98;;;;;;;11.69;85.58;93619.63;1694709;83;21085;-54
2021/05/17 04:43:47;;;;;;;15.95;12.55;;;;;;;11.66;85.61;93609.57;1694473;84;21037;-55
2021/05/17 04:46:13;;;;;;;13.83;11.28;;;;;;;11.62;85.79;93615.91;1694869;84;21467;-55
2021/05/17 04:48:49;;;;;;;16.23;11.97;;;;;;;11.64;86.25;93615.41;1694747;84;21041;-55
2021/05/17 04:51:08;;;;;;;16.80;11.05;;;;;;;11.68;86.60;93611.86;1693880;84;21085;-56
2021/05/17 04:53:35;;;;;;;18.07;12.00;;;;;;;11.73;86.65;93611.91;1694828;84;21747;-54
2021/05/17 04:56:03;;;;;;;14.85;10.65;;;;;;;11.81;86.62;93602.61;1694448;84;21064;-54
2021/05/17 04:58:29;;;;;;;14.70;10.40;;;;;;;11.89;86.67;93596.84;1694823;84;21070;-54
2021/05/17 05:00:56;;;;;;;12.58;8.18;;;;;;;12.01;86.63;93595.70;1694675;83;21506;-54
2021/05/17 05:03:26;;;;;;;8.75;6.60;;;;;;;12.16;86.59;93593.02;1694655;83;20970;-55
2021/05/17 05:06:00;;;;;;;7.12;5.72;;;;;;;12.32;86.26;93589.69;1694662;84;21105;-54
2021/05/17 05:08:27;;;;;;;15.38;5.87;;;;;;;12.53;85.43;93585.64;1694766;83;21573;-54
2021/05/17 05:10:54;;;;;;;6.05;4.35;;;;;;;12.75;84.70;93585.20;1694779;84;20978;-54
2021/05/17 05:13:21;;;;;;;8.70;5.05;;;;;;;12.95;83.45;93585.78;1694729;84;21079;-54
2021/05/17 05:15:52;;;;;;;6.85;4.50;;;;;;;12.97;81.79;93578.53;1694771;83;21010;-55
2021/05/17 05:18:19;;;;;;;14.63;8.20;;;;;;;12.93;81.16;93571.07;1694719;84;21171;-54
2021/05/17 05:20:47;;;;;;;8.38;5.37;;;;;;;12.94;81.21;93564.94;1686524;84;20920;-56
2021/05/17 05:23:15;;;;;;;15.40;9.13;;;;;;;13.06;81.20;93567.29;1686309;84;21188;-55
2021/05/17 05:28:21;;;;;;;9.15;4.17;;;;;;;13.35;80.41;93581.42;1673615;84;21409;-54
2021/05/17 05:30:59;;;;;;;4.22;3.85;;;;;;;13.47;79.93;93579.61;1668044;84;21106;-54
2021/05/17 05:33:22;;;;;;;6.78;4.45;;;;;;;13.54;79.04;93577.78;1684090;84;21065;-54
2021/05/17 05:35:49;;;;;;;6.65;4.17;;;;;;;13.54;78.47;93570.88;1722836;82;21052;-54
2021/05/17 05:38:15;;;;;;;4.72;4.00;;;;;;;13.56;78.33;93577.27;1724743;82;21018;-53
2021/05/17 05:40:42;;;;;;;5.45;4.65;;;;;;;13.62;78.49;93571.17;1734894;82;21059;-55
2021/05/17 05:43:09;;;;;;;4.45;4.00;;;;;;;13.71;78.59;93569.57;1720836;82;21116;-56
2021/05/17 05:45:44;;;;;;;5.53;3.92;;;;;;;13.78;78.28;93573.27;1713493;82;21031;-56
2021/05/17 05:48:06;;;;;;;7.12;5.67;;;;;;;13.85;78.17;93579.70;1713908;82;21043;-55
2021/05/17 05:50:33;;;;;;;5.47;4.95;;;;;;;13.92;77.69;93573.07;1722998;82;21045;-55
2021/05/17 05:53:00;;;;;;;6.67;4.33;;;;;;;13.99;77.71;93566.31;1712912;82;21124;-55
2021/05/17 05:55:27;;;;;;;8.75;4.35;;;;;;;14.04;77.48;93565.57;1715891;82;21044;-60
2021/05/17 05:57:54;;;;;;;4.97;4.05;;;;;;;14.11;77.19;93562.32;1716744;82;21020;-58
2021/05/17 06:00:22;;;;;;;8.08;3.70;;;;;;;14.20;77.05;93558.73;1706172;82;22063;-55
2021/05/17 06:02:50;;;;;;;10.18;4.47;;;;;;;14.27;76.19;93567.17;1701226;82;21175;-61
2021/05/17 06:05:17;;;;;;;9.23;3.98;;;;;;;14.35;76.04;93573.76;1698196;82;21111;-59
2021/05/17 06:07:44;;;;;;;12.53;4.20;;;;;;;14.40;75.76;93573.75;1699074;82;22241;-56
2021/05/17 06:10:11;;;;;;;7.80;3.45;;;;;;;14.45;75.54;93568.23;1697692;81;21146;-59
2021/05/17 06:12:41;;;;;;;8.73;4.78;;;;;;;14.54;75.40;93563.09;1714848;82;21016;-57
2021/05/17 06:15:11;;;;;;;16.50;4.37;;;;;;;14.63;75.04;93564.99;1717219;81;21203;-57
2021/05/17 06:17:39;;;;;;;5.15;3.45;;;;;;;14.75;74.95;93557.45;1724067;82;22216;-57
2021/05/17 06:20:08;;;;;;;5.58;3.67;;;;;;;14.90;74.81;93555.97;1714205;82;21112;-57
2021/05/17 06:22:37;;;;;;;3.22;2.92;;;;;;;15.07;74.43;93558.73;1704930;82;21179;-58
2021/05/17 06:25:12;;;;;;;15.98;3.60;;;;;;;15.25;73.58;93545.73;1706729;82;22352;-57
2021/05/17 06:27:39;;;;;;;9.10;3.42;;;;;;;15.44;72.71;93551.67;1701331;84;21270;-57
2021/05/17 06:30:10;;;;;;;6.15;3.10;;;;;;;15.64;71.30;93547.22;1708892;82;21067;-59
2021/05/17 06:32:38;;;;;;;6.45;3.05;;;;;;;15.77;69.37;93546.02;1648601;85;21077;-57
2021/05/17 06:35:09;;;;;;;30.08;3.47;;;;;;;15.88;68.87;93550.16;1716837;83;21053;-58
2021/05/17 06:37:35;;;;;;;16.93;2.92;;;;;;;15.99;63.73;93549.36;1716215;82;21586;-57
2021/05/17 06:40:04;;;;;;;11.00;2.12;;;;;;;16.07;62.06;93544.16;1717170;83;21055;-57
2021/05/17 06:42:32;;;;;;;13.43;3.20;;;;;;;16.15;60.23;93549.93;1716843;83;21056;-59
2021/05/17 06:44:59;;;;;;;7.72;3.08;;;;;;;16.21;63.34;93549.27;1717376;82;21091;-55
2021/05/17 06:47:26;;;;;;;6.47;3.55;;;;;;;16.27;65.23;93556.30;1715930;82;21113;-57
2021/05/17 06:49:53;;;;;;;8.43;3.50;;;;;;;16.29;66.15;93553.76;1711180;82;21542;-55
2021/05/17 06:52:24;;;;;;;5.28;3.02;;;;;;;16.32;66.52;93558.28;1704080;82;21067;-55
2021/05/17 06:54:50;;;;;;;4.42;3.08;;;;;;;16.39;66.38;93553.63;1713084;82;21106;-58
2021/05/17 06:57:23;;;;;;;2.72;2.12;;;;;;;16.47;66.62;93549.80;1711804;82;21069;-56
2021/05/17 06:59:55;;;;;;;4.75;2.05;;;;;;;16.55;65.67;93547.97;1709559;82;21097;-57
2021/05/17 07:02:20;;;;;;;7.28;2.05;;;;;;;16.64;64.76;93549.68;1706272;82;21142;-58
2021/05/17 07:04:47;;;;;;;4.45;2.27;;;;;;;16.78;64.22;93543.80;1712627;82;21047;-56
2021/05/17 07:07:18;;;;;;;10.65;2.12;;;;;;;17.00;63.16;93545.02;1712697;82;21101;-58
2021/05/17 07:12:32;;;;;;;4.90;2.05;;;;;;;17.58;62.46;93539.96;1711997;82;21678;-56
2021/05/17 07:15:01;;;;;;;7.58;2.12;;;;;;;17.83;61.67;93548.44;1714509;82;21105;-56
2021/05/17 07:17:29;;;;;;;8.58;3.05;;;;;;;18.04;60.50;93543.90;1713680;83;21071;-57
2021/05/17 07:19:56;;;;;;;7.30;4.33;;;;;;;18.22;60.28;93541.12;1686192;83;21014;-56
2021/05/17 07:25:11;;;;;;;5.97;2.02;;;;;;;18.33;57.50;93532.67;1704905;81;21747;-57
2021/05/17 07:27:37;;;;;;;4.53;1.62;;;;;;;18.51;57.81;93534.09;1710632;82;21638;-57
2021/05/17 07:30:07;;;;;;;6.92;1.77;;;;;;;18.78;56.04;93532.92;1717827;82;21940;-57
2021/05/17 07:32:33;;;;;;;2.85;1.17;;;;;;;19.07;56.08;93525.02;1698568;82;21173;-57
2021/05/17 07:35:01;;;;;;;6.42;1.10;;;;;;;19.36;54.21;93525.44;1676120;82;21773;-56
2021/05/17 07:37:29;;;;;;;5.53;1.15;;;;;;;19.56;54.07;93531.80;1650658;85;21113;-57
2021/05/17 07:39:55;;;;;;;1.67;1.10;;;;;;;19.67;52.54;93531.62;1659000;86;21463;-58
2021/05/17 07:42:23;;;;;;;9.95;1.40;;;;;;;19.76;51.74;93538.81;1654535;86;21156;-60
2021/05/17 07:44:51;;;;;;;3.95;1.00;;;;;;;19.75;52.07;93536.66;1653670;86;21109;-55
2021/05/17 07:47:18;;;;;;;5.40;0.80;;;;;;;19.73;51.15;93532.26;1652642;86;22219;-56
2021/05/17 07:49:53;;;;;;;0.70;0.70;;;;;;;19.69;50.90;93533.23;1645448;85;21105;-58
2021/05/17 07:52:14;;;;;;;0.95;0.85;;;;;;;19.61;50.10;93528.19;1638299;85;21124;-58
2021/05/17 07:54:41;;;;;;;1.15;1.00;;;;;;;19.53;50.45;93523.11;1637710;85;21105;-57
2021/05/17 07:57:08;;;;;;;8.30;1.47;;;;;;;19.45;50.65;93516.67;1652046;85;21073;-58
2021/05/17 07:59:36;;;;;;;3.62;1.17;;;;;;;19.44;51.88;93523.54;1646248;85;21097;-56
2021/05/17 08:02:03;;;;;;;3.55;1.50;;;;;;;19.49;52.22;93521.28;1617577;86;21138;-56
2021/05/17 08:04:30;;;;;;;1.17;1.07;;;;;;;19.52;51.87;93519.48;1650343;86;21085;-56
2021/05/17 08:06:57;;;;;;;8.13;1.77;;;;;;;19.50;51.87;93514.42;1645373;85;21475;-57
2021/05/17 08:09:27;;;;;;;1.10;1.00;;;;;;;19.42;51.62;93519.14;1654548;86;22031;-57
2021/05/17 08:11:53;;;;;;;7.03;1.90;;;;;;;19.38;51.64;93513.76;1634833;86;21170;-58
2021/05/17 08:14:20;;;;;;;3.42;2.20;;;;;;;19.36;51.33;93512.88;1646028;86;21133;-61
2021/05/17 08:16:47;;;;;;;1.90;1.70;;;;;;;19.31;51.31;93513.73;1649610;85;21061;-60
2021/05/17 08:19:15;;;;;;;8.45;2.80;;;;;;;19.29;51.02;93510.73;1651575;85;21026;-58
2021/05/17 08:21:43;;;;;;;3.40;1.40;;;;;;;19.30;51.30;93515.02;1622610;87;21103;-58
2021/05/17 08:24:11;;;;;;;2.45;1.62;;;;;;;19.32;50.78;93508.89;1616505;87;22879;-57
2021/05/17 08:26:41;;;;;;;2.02;1.42;;;;;;;19.37;49.71;93500.44;1613318;87;21566;-57
2021/05/17 08:29:08;;;;;;;4.75;1.65;;;;;;;19.38;49.09;93500.55;1627696;86;21456;-56
2021/05/17 08:31:36;;;;;;;0.98;0.88;;;;;;;19.37;47.54;93506.02;1646270;84;21103;-58
2021/05/17 08:34:03;;;;;;;2.25;1.25;;;;;;;19.29;47.30;93500.97;1648060;85;21125;-56
2021/05/17 08:36:30;;;;;;;1.62;1.10;;;;;;;19.19;47.28;93494.28;1644022;85;21171;-58
2021/05/17 08:38:58;;;;;;;3.33;1.15;;;;;;;19.12;47.70;93497.68;1655382;85;21117;-59
2021/05/17 08:41:26;;;;;;;5.15;1.40;;;;;;;19.11;48.90;93492.63;1657135;85;21213;-56
2021/05/17 08:43:53;;;;;;;2.02;1.50;;;;;;;19.08;49.58;93486.09;1651800;85;21124;-57
2021/05/17 08:46:20;;;;;;;2.42;1.40;;;;;;;19.03;49.41;93491.09;1641457;86;21079;-58
2021/05/17 08:48:48;;;;;;;1.07;0.98;;;;;;;18.96;49.65;93486.78;1653647;86;21170;-57
2021/05/17 08:51:22;;;;;;;4.20;1.47;;;;;;;18.92;49.98;93474.57;1653934;85;21167;-56
2021/05/17 08:53:50;;;;;;;8.10;2.05;;;;;;;18.98;50.81;93481.45;1642164;85;21734;-56
2021/05/17 08:56:18;;;;;;;6.80;1.20;;;;;;;19.04;51.41;93475.88;1640497;85;21158;-58
2021/05/17 08:58:47;;;;;;;1.10;1.00;;;;;;;19.13;51.92;93476.87;1650069;85;21096;-60
2021/05/17 09:01:14;;;;;;;1.22;1.12;;;;;;;19.20;51.03;93481.84;1649758;85;21125;-57
2021/05/17 09:03:41;;;;;;;2.35;1.10;;;;;;;19.19;50.37;93477.55;1654584;86;21077;-58
2021/05/17 09:06:11;;;;;;;3.10;1.37;;;;;;;19.26;50.63;93474.78;1658778;85;21665;-57
2021/05/17 09:08:42;;;;;;;3.80;1.30;;;;;;;19.32;51.29;93468.45;1651199;85;21143;-56
2021/05/17 09:11:10;;;;;;;2.22;1.32;;;;;;;19.41;51.25;93468.80;1656097;85;21133;-57
2021/05/17 09:13:37;;;;;;;3.33;1.00;;;;;;;19.53;51.30;93472.16;1659500;86;21116;-57
2021/05/17 09:16:05;;;;;;;2.22;1.30;;;;;;;19.61;51.72;93468.82;1655128;86;21653;-56
2021/05/17 09:18:35;;;;;;;3.42;1.20;;;;;;;19.66;52.89;93463.77;1651738;85;21192;-57
2021/05/17 09:21:07;;;;;;;1.40;1.25;;;;;;;19.66;52.48;93465.94;1647192;85;21645;-57
2021/05/17 09:23:35;;;;;;;7.17;1.70;;;;;;;19.66;52.48;93461.75;1632652;86;21572;-57
2021/05/17 09:26:22;;;;;;;1.98;1.67;;;;;;;19.73;52.39;93462.48;1650394;85;21119;-56
2021/05/17 09:28:51;;;;;;;1.85;1.10;;;;;;;19.83;52.97;93465.59;1617281;86;21080;-57
2021/05/17 09:31:21;;;;;;;2.30;1.12;;;;;;;19.96;52.26;93462.15;1651852;85;21136;-55
2021/05/17 09:33:57;;;;;;;2.33;0.93;;;;;;;20.13;52.37;93456.38;1610507;87;21163;-55
2021/05/17 09:36:36;;;;;;;1.65;1.20;;;;;;;20.35;52.51;93449.56;1596540;89;21100;-55
2021/05/17 09:39:12;;;;;;;5.08;2.22;;;;;;;20.52;52.61;93448.55;1578660;88;21311;-57
2021/05/17 09:41:56;;;;;;;3.87;2.12;;;;;;;20.64;51.03;93446.98;1604327;89;21134;-55
2021/05/17 09:44:26;;;;;;;4.15;1.47;;;;;;;20.78;51.62;93444.25;1594063;88;21135;-56
2021/05/17 09:47:13;;;;;;;2.58;1.30;;;;;;;20.91;50.25;93444.23;1594331;89;21127;-63
2021/05/17 09:49:46;;;;;;;6.33;1.42;;;;;;;21.07;49.87;93442.41;1604187;89;21044;-56
2021/05/17 09:52:26;;;;;;;7.55;1.50;;;;;;;21.24;49.36;93437.14;1582111;89;21119;-56
2021/05/17 09:55:10;;;;;;;3.20;1.55;;;;;;;21.41;48.28;93426.28;1580865;88;21119;-61
2021/05/17 09:57:41;;;;;;;2.83;1.22;;;;;;;21.51;47.68;93425.87;1548162;90;21117;-59
2021/05/17 10:00:20;;;;;;;2.62;1.32;;;;;;;21.46;47.03;93420.44;1600680;89;21087;-57
2021/05/17 10:02:49;;;;;;;2.37;1.57;;;;;;;21.30;45.97;93420.23;1562801;89;21655;-57
2021/05/17 10:05:33;;;;;;;1.82;1.10;;;;;;;21.04;46.08;93411.98;1591325;88;21129;-57
2021/05/17 10:08:06;;;;;;;5.83;1.72;;;;;;;20.85;46.95;93410.05;1579086;88;21301;-56
2021/05/17 10:10:33;;;;;;;21.42;11.43;;;;;;;20.86;49.06;93408.74;1591122;89;21124;-57
2021/05/17 10:13:03;;;;;;;18.12;2.90;;;;;;;21.06;49.80;93405.19;1587245;88;21115;-55
2021/05/17 10:15:33;;;;;;;2.02;1.32;;;;;;;21.36;46.61;93401.23;1579452;89;22366;-57
2021/05/17 10:18:00;;;;;;;2.02;1.30;;;;;;;21.71;45.76;93397.77;1604987;89;21134;-57
2021/05/17 10:20:29;;;;;;;2.45;1.45;;;;;;;22.04;46.97;93394.75;1597456;89;21122;-56
2021/05/17 10:22:57;;;;;;;3.85;1.15;;;;;;;22.37;46.58;93390.31;1580317;90;21067;-57
2021/05/17 10:25:29;;;;;;;2.08;1.20;;;;;;;22.64;44.47;93391.52;1582605;88;21191;-56
2021/05/17 10:28:11;;;;;;;1.82;1.32;;;;;;;22.85;43.54;93385.11;1580002;89;26882;-58
2021/05/17 10:30:38;;;;;;;4.90;1.33;;;;;;;23.03;41.65;93387.47;1598594;89;21674;-57
2021/05/17 10:33:08;;;;;;;57.08;4.80;;;;;;;23.27;42.94;93380.68;1598005;89;21061;-56
2021/05/17 10:35:44;;;;;;;3.70;1.50;;;;;;;23.64;40.05;93377.08;1653545;86;21565;-56
2021/05/17 10:38:32;;;;;;;2.40;0.98;;;;;;;23.96;40.03;93378.59;1646880;86;21589;-57
2021/05/17 10:46:50;;;;;;;1.65;1.00;;;;;;;24.41;36.14;93373.55;1660400;86;21105;-56
2021/05/17 10:49:28;;;;;;;3.80;1.05;;;;;;;24.49;35.62;93371.45;1648870;86;21090;-56
2021/05/17 10:52:10;;;;;;;1.72;0.93;;;;;;;24.63;36.30;93363.53;1660364;86;21661;-56
2021/05/17 10:54:42;;;;;;;9.10;1.35;;;;;;;24.54;34.85;93361.34;1659324;86;21085;-59
2021/05/17 10:57:27;;;;;;;2.12;0.90;;;;;;;24.64;35.03;93358.75;1669300;85;21283;-56
2021/05/17 11:02:44;;;;;;;2.87;1.15;;;;;;;25.27;35.19;93352.96;1642040;86;21097;-56
2021/05/17 11:05:22;;;;;;;9.60;1.47;;;;;;;25.66;34.00;93348.48;1643200;85;21161;-56
2021/05/17 11:07:56;;;;;;;4.20;0.80;;;;;;;25.95;33.17;93342.53;1636640;85;21087;-58
2021/05/17 11:10:39;;;;;;;10.00;2.83;;;;;;;25.91;33.54;93325.98;1636662;85;22303;-54
2021/05/17 11:13:14;;;;;;;1.72;0.98;;;;;;;25.83;33.96;93335.81;1658341;85;22415;-56
2021/05/17 11:15:57;;;;;;;4.05;0.82;;;;;;;26.09;33.32;93323.23;1655267;86;21644;-58
2021/05/17 11:18:34;;;;;;;1.87;0.82;;;;;;;26.46;31.39;93330.47;1644901;85;21170;-61
2021/05/17 11:21:13;;;;;;;0.60;0.55;;;;;;;26.66;30.95;93325.04;1658576;85;21110;-57
2021/05/17 11:23:45;;;;;;;1.07;0.80;;;;;;;26.86;30.57;93319.56;1650821;85;21133;-58
2021/05/17 11:26:12;;;;;;;0.60;0.60;;;;;;;27.10;32.66;93315.17;1655859;85;21090;-56
2021/05/17 11:28:48;;;;;;;1.17;0.62;;;;;;;27.43;30.98;93313.46;1659961;86;21161;-58
2021/05/17 11:31:27;;;;;;;5.72;1.00;;;;;;;27.73;30.94;93315.78;1669829;85;21165;-58
2021/05/17 11:34:00;;;;;;;3.37;2.00;;;;;;;28.03;30.77;93303.91;1661369;85;21175;-58
2021/05/17 11:36:53;;;;;;;3.12;0.88;;;;;;;28.44;32.17;93305.53;1658261;86;21135;-57
2021/05/17 11:39:28;;;;;;;3.52;0.80;;;;;;;28.86;29.59;93304.30;1643283;85;21218;-60
2021/05/17 11:42:05;;;;;;;3.35;1.22;;;;;;;29.14;28.41;93303.50;1652220;86;21112;-63
2021/05/17 11:44:58;;;;;;;2.75;0.95;;;;;;;29.24;28.22;93298.52;1654016;85;21176;-62
2021/05/17 11:47:30;;;;;;;2.10;0.78;;;;;;;29.19;28.07;93296.75;1656520;85;21653;-58
2021/05/17 11:49:58;;;;;;;1.35;1.20;;;;;;;29.33;28.46;93291.38;1646173;85;21756;-56
2021/05/17 11:52:28;;;;;;;4.85;1.00;;;;;;;29.68;27.84;93283.89;1653814;85;21011;-57
2021/05/17 11:54:57;;;;;;;1.70;1.10;;;;;;;30.05;28.04;93284.98;1651402;85;21095;-58
2021/05/17 11:57:33;;;;;;;0.90;0.62;;;;;;;30.29;27.12;93281.64;1653749;86;21152;-58
2021/05/17 12:00:13;;;;;;;1.82;0.62;;;;;;;30.52;25.46;93278.87;1654005;86;21125;-60
2021/05/17 12:02:49;;;;;;;2.45;0.78;;;;;;;30.43;25.29;93278.30;1648848;85;21176;-57
2021/05/17 12:05:16;;;;;;;1.10;0.90;;;;;;;30.34;27.68;93276.98;1646564;85;21186;-57